Nearby METAR Reports

 

KSJC - San Jose, California, USA
Distance from station: NE 9mi, 14km
Updated: Sun, 21-Apr-2024 10:53am PDT
Few Clouds
Few Clouds
 Wind from calm
Wind: Calm
Temperature: 70°F, 21°C
Dew Point: 48°F, 9°C
Humidity: 46%
Barometer: 30.06 inHg, 1017.9 hPa
Clouds: Few Clouds
Visibility: 10 miles, 16 km
Cloud details: Few Clouds 10000 ft
2024/04/21 17:53 KSJC 211753Z 00000KT 10SM FEW100 21/09 A3006 RMK AO2 SLP180 T02060094 10206 20100 57010
KRHV - San Jose/Reid, California, USA
Distance from station: ENE 12mi, 19km
Updated: Sun, 21-Apr-2024 10:47am PDT
Clear
Clear
 Wind from calm
Wind: Calm
Temperature: 66°F, 19°C
Dew Point: 45°F, 7°C
Humidity: 46%
Barometer: 30.08 inHg, 1018.6 hPa
Clouds: Clear
Visibility: 10 miles, 16 km
2024/04/21 17:47 KRHV 211747Z 00000KT 10SM SKC 19/07 A3008
 
KPAO - Palo Alto, California, USA
Distance from station: NNW 14mi, 23km
Updated: Sun, 21-Apr-2024 10:47am PDT
Clear
Clear
 Wind from NNE
Wind: NNE 6 mph, 9 km/h
Temperature: 63°F, 17°C
Dew Point: 54°F, 12°C
Humidity: 73%
Barometer: 30.08 inHg, 1018.6 hPa
Clouds: Clear
Visibility: 10 miles, 16 km
2024/04/21 17:47 KPAO 211747Z 02005KT 10SM SKC 17/12 A3008
KOAK - Oakland, California, USA
Distance from station: NNW 31mi, 50km
Updated: Sun, 21-Apr-2024 10:53am PDT
Few Clouds
Few Clouds
 Wind from SW
Wind: SW 5 mph, 7 km/h
Temperature: 61°F, 16°C
Dew Point: 54°F, 12°C
Humidity: 77%
Barometer: 30.09 inHg, 1019 hPa
Clouds: Few Clouds
Visibility: 10 miles, 16 km
Cloud details: Few Clouds 13000 ft
2024/04/21 17:53 KOAK 211753Z 23004KT 10SM FEW130 16/12 A3009 RMK AO2 SLP189 T01560117 10156 20122 58004
 
KSQL - San Carlos Airpo, California, USA
Distance from station: NW 21mi, 34km
Updated: Sun, 21-Apr-2024 10:47am PDT
Clear
Clear
 Wind from calm
Wind: Calm
Temperature: 63°F, 17°C
Dew Point: 55°F, 13°C
Humidity: 77%
Barometer: 30.08 inHg, 1018.6 hPa
Clouds: Clear
Visibility: 10 miles, 16 km
2024/04/21 17:47 KSQL 211747Z 00000KT 10SM CLR 17/13 A3008
KSFO - San Francisco, California, USA
Distance from station: NW 30mi, 49km
Updated: Sun, 21-Apr-2024 10:56am PDT
Few Clouds
Few Clouds
 Wind from NNE
Wind: NNE 7 mph, 11 km/h
Temperature: 63°F, 17°C
Dew Point: 54°F, 12°C
Humidity: 73%
Barometer: 30.07 inHg, 1018.3 hPa
Clouds: Few Clouds
Visibility: 10 miles, 16 km
Cloud details: Few Clouds 800 ft
Few Clouds 20000 ft
2024/04/21 17:56 KSFO 211756Z 03006KT 10SM FEW008 FEW200 17/12 A3007 RMK AO2 SLP182 T01670122 10178 20117 58005
 
KE16 - San Martin, California, USA
Distance from station: ESE 27mi, 43km
Updated: Sun, 21-Apr-2024 10:55am PDT
Clear
Clear
 Wind from calm
Wind: Calm
Temperature: 64°F, 18°C
Dew Point: 45°F, 7°C
Humidity: 49%
Barometer: 30.09 inHg, 1019 hPa
Clouds: Clear
Visibility: 7 miles, 11 km
2024/04/21 17:55 KE16 211755Z AUTO 00000KT 7SM CLR 18/07 A3009 RMK AO2 PWINO PNO
KWVI - Watsonville, California, USA
Distance from station: SSE 27mi, 44km
Updated: Sun, 21-Apr-2024 10:53am PDT
Clear
Clear
 Wind from calm
Wind: Calm
Temperature: 66°F, 19°C
Dew Point: 46°F, 8°C
Humidity: 49%
Barometer: 30.07 inHg, 1018.3 hPa
Clouds: Clear
Visibility: 10 miles, 16 km
2024/04/21 17:53 KWVI 211753Z AUTO 00000KT 10SM CLR 19/08 A3007 RMK AO2 SLP182 T01890078 10189 20078 56009
 
KHAF - Half Moon Bay, California, USA
Distance from station: WNW 31mi, 50km
Updated: Sun, 21-Apr-2024 10:55am PDT
Mist, Clear
Mist, Clear
 Wind from NNW
Wind: NNW 10 mph, 17 km/h
Temperature: 59°F, 15°C
Dew Point: 55°F, 13°C
Humidity: 88%
Barometer: 30.08 inHg, 1018.6 hPa
Summary: Mist
Clouds: Clear
Visibility: 4 miles, 6 km
2024/04/21 17:55 KHAF 211755Z AUTO 33009KT 300V360 4SM BR CLR 15/13 A3008 RMK AO2
KHWD - Hayward, California, USA
Distance from station: N 28mi, 44km
Updated: Sun, 21-Apr-2024 10:54am PDT
Clear
Clear
 Wind from W
Wind: W 6 mph, 9 km/h
Temperature: 66°F, 19°C
Dew Point: 54°F, 12°C
Humidity: 64%
Barometer: 30.06 inHg, 1017.9 hPa
Clouds: Clear
Visibility: 10 miles, 16 km
2024/04/21 17:54 KHWD 211754Z 27005KT 10SM CLR 19/12 A3006 RMK AO2 SLP189 T01890122 10189 20122 58007
 
KLVK - Livermore, California, USA
Distance from station: NNE 31mi, 51km
Updated: Sun, 21-Apr-2024 10:53am PDT
Clear
Clear
 Wind from calm
Wind: Calm
Temperature: 66°F, 19°C
Dew Point: 48°F, 9°C
Humidity: 52%
Barometer: 30.06 inHg, 1017.9 hPa
Clouds: Clear
Visibility: 10 miles, 16 km
2024/04/21 17:53 KLVK 211753Z 00000KT 10SM CLR 19/09 A3006 RMK AO2 SLP176 T01940094 10194 20078 58009